Time;durP1;ratioP1;P1;durP2;ratioP2;P2;SDS_P1;SDS_P2;PMS_P1;PMS_P2;Temp;Humidity;BMP_temperature;BMP_pressure;BME280_temperature;BME280_humidity;BME280_pressure;Samples;Min_cycle;Max_cycle;Signal;HPM_P1;HPM_P2
2022/01/14 00:02:10;;;;;;;81.55;29.35;;;;;;;-6.65;100.00;98881.09;5014205;28;20056;-86
2022/01/14 00:04:36;;;;;;;77.82;29.55;;;;;;;-6.80;100.00;98863.31;5011830;28;20021;-86
2022/01/14 00:07:02;;;;;;;75.97;30.60;;;;;;;-6.74;100.00;98875.63;5012921;28;20423;-86
2022/01/14 00:09:28;;;;;;;74.80;29.02;;;;;;;-6.82;100.00;98878.00;5014862;28;20123;-87
2022/01/14 00:11:57;;;;;;;71.90;27.88;;;;;;;-6.84;100.00;98886.63;5014743;28;20048;-87
2022/01/14 00:17:05;;;;;;;77.15;30.20;;;;;;;-6.90;100.00;98912.44;5029240;28;20141;-87
2022/01/14 00:19:31;;;;;;;74.03;28.15;;;;;;;-6.88;100.00;98909.06;5014870;28;20429;-87
2022/01/14 00:21:58;;;;;;;76.03;27.08;;;;;;;-6.84;100.00;98897.91;5014528;28;20037;-85
2022/01/14 00:24:29;;;;;;;62.58;24.05;;;;;;;-6.99;100.00;98868.00;5014757;28;20064;-85
2022/01/14 00:34:48;;;;;;;80.50;33.15;;;;;;;-6.90;100.00;98912.44;5031210;28;20545;-85
2022/01/14 00:37:15;;;;;;;65.55;27.20;;;;;;;-6.91;100.00;98895.97;5013051;28;20457;-86
2022/01/14 00:39:40;;;;;;;95.65;34.95;;;;;;;-6.81;100.00;98907.50;5011312;28;20025;-86
2022/01/14 00:42:07;;;;;;;87.13;31.77;;;;;;;-6.96;100.00;98881.09;5011560;28;20018;-85
2022/01/14 00:44:33;;;;;;;72.50;29.85;;;;;;;-6.95;100.00;98880.25;5014136;28;20051;-85
2022/01/14 00:47:02;;;;;;;69.28;29.05;;;;;;;-6.84;100.00;98882.31;5014324;28;20029;-87
2022/01/14 00:49:27;;;;;;;68.50;27.73;;;;;;;-6.93;100.00;98886.38;5011110;28;20034;-86
2022/01/14 00:51:53;;;;;;;69.93;28.05;;;;;;;-6.95;100.00;98882.84;5009707;28;20029;-85
2022/01/14 00:54:18;;;;;;;68.63;28.75;;;;;;;-6.96;100.00;98871.56;5014330;28;20056;-86
2022/01/14 00:56:48;;;;;;;68.18;25.35;;;;;;;-6.90;100.00;98876.94;5015656;28;20029;-86
2022/01/14 00:59:16;;;;;;;73.10;25.90;;;;;;;-6.97;100.00;98858.50;5013293;28;20050;-86
2022/01/14 01:01:46;;;;;;;78.43;30.75;;;;;;;-6.87;100.00;98882.22;5011508;28;20103;-85
2022/01/14 01:04:13;;;;;;;98.50;38.38;;;;;;;-6.91;100.00;98863.88;5009365;28;20063;-86
2022/01/14 01:06:39;;;;;;;84.50;34.70;;;;;;;-6.96;100.00;98862.88;5011387;28;20034;-85
2022/01/14 01:09:10;;;;;;;94.65;36.03;;;;;;;-6.99;100.00;98862.81;5011195;28;20496;-86
2022/01/14 01:11:38;;;;;;;80.40;32.28;;;;;;;-7.14;100.00;98832.94;5015021;28;20025;-86
2022/01/14 01:14:16;;;;;;;86.03;32.78;;;;;;;-7.08;100.00;98850.44;5011991;28;20482;-86
2022/01/14 01:16:42;;;;;;;99.28;36.70;;;;;;;-7.06;100.00;98845.25;5024192;28;20026;-85
2022/01/14 01:19:08;;;;;;;84.75;34.05;;;;;;;-7.23;100.00;98824.88;5012697;28;20029;-87
2022/01/14 01:21:34;;;;;;;105.65;35.85;;;;;;;-7.22;100.00;98815.38;5022457;28;20026;-87
2022/01/14 01:24:00;;;;;;;86.68;36.53;;;;;;;-7.09;100.00;98814.00;5010624;28;20112;-85
2022/01/14 01:26:35;;;;;;;91.53;35.35;;;;;;;-7.17;100.00;98819.84;5013174;28;20472;-86
2022/01/14 01:29:18;;;;;;;92.78;34.05;;;;;;;-7.07;100.00;98826.19;5012627;28;20096;-86
2022/01/14 01:31:45;;;;;;;;;;;;;;;-7.09;100.00;98838.28;5010028;28;20025;-86
2022/01/14 01:34:19;;;;;;;68.75;28.30;;;;;;;-7.04;100.00;98831.47;5010784;28;19913;-87
2022/01/14 01:36:47;;;;;;;86.53;31.35;;;;;;;-7.24;100.00;98797.16;5007937;28;20104;-86
2022/01/14 01:39:16;;;;;;;81.43;31.60;;;;;;;-7.06;100.00;98816.66;5017566;28;20025;-85
2022/01/14 01:41:47;;;;;;;75.30;31.95;;;;;;;-6.96;100.00;98823.88;5017653;28;20026;-86
2022/01/14 01:44:14;;;;;;;91.28;33.97;;;;;;;-6.99;100.00;98821.22;5017903;28;20021;-86
2022/01/14 01:46:43;;;;;;;79.35;30.88;;;;;;;-7.00;100.00;98824.63;5017447;28;20568;-86
2022/01/14 01:49:10;;;;;;;65.43;26.70;;;;;;;-7.03;100.00;98806.34;5017602;28;20073;-85
2022/01/14 01:51:36;;;;;;;61.22;26.45;;;;;;;-6.98;100.00;98813.44;5017239;28;20068;-86
2022/01/14 01:54:02;;;;;;;72.55;28.80;;;;;;;-7.18;100.00;98765.25;5017388;28;20037;-83
2022/01/14 01:56:28;;;;;;;67.93;27.23;;;;;;;-7.17;100.00;98783.47;5034376;28;20029;-87
2022/01/14 01:58:56;;;;;;;83.35;30.75;;;;;;;-7.26;100.00;98766.78;5034774;28;20090;-85
2022/01/14 02:01:23;;;;;;;69.70;31.00;;;;;;;-7.17;100.00;98786.06;5015262;28;20120;-85
2022/01/14 02:03:49;;;;;;;81.90;34.25;;;;;;;-7.18;100.00;98773.94;5017134;28;20408;-86
2022/01/14 02:06:15;;;;;;;83.82;33.10;;;;;;;-7.24;100.00;98770.28;5017282;28;20121;-85
2022/01/14 02:08:41;;;;;;;98.47;40.97;;;;;;;-7.25;100.00;98766.78;5016492;28;20029;-86
2022/01/14 02:11:06;;;;;;;110.35;42.75;;;;;;;-7.10;100.00;98765.47;5017135;28;20044;-86
2022/01/14 02:13:32;;;;;;;101.40;38.65;;;;;;;-7.15;100.00;98758.41;5016457;28;20037;-86
2022/01/14 02:16:16;;;;;;;93.20;36.83;;;;;;;-7.07;100.00;98762.94;5016723;28;20040;-86
2022/01/14 02:24:21;;;;;;;78.22;29.92;;;;;;;-7.33;100.00;98731.94;5033406;28;20103;-86
2022/01/14 02:26:50;;;;;;;93.15;30.52;;;;;;;-7.30;100.00;98732.03;5019479;28;20052;-87
2022/01/14 02:29:16;;;;;;;84.68;31.25;;;;;;;-7.32;100.00;98720.69;5032920;28;20541;-85
2022/01/14 02:31:42;;;;;;;80.80;33.22;;;;;;;-7.27;100.00;98721.72;5015523;28;20034;-85
2022/01/14 02:34:10;;;;;;;88.03;32.95;;;;;;;-7.19;100.00;98727.97;5033059;28;20507;-86
2022/01/14 02:36:36;;;;;;;89.57;34.92;;;;;;;-7.24;100.00;98723.50;5035381;28;20573;-86
2022/01/14 02:39:01;;;;;;;92.82;34.65;;;;;;;-7.32;100.00;98702.50;5017247;28;20021;-86
2022/01/14 02:41:28;;;;;;;89.53;35.03;;;;;;;-7.25;100.00;98706.16;5013960;28;20057;-85
2022/01/14 02:43:54;;;;;;;79.47;29.63;;;;;;;-7.27;100.00;98716.50;5032902;28;20021;-85
2022/01/14 02:46:19;;;;;;;66.38;28.50;;;;;;;-7.36;100.00;98703.28;5013274;28;20030;-86
2022/01/14 02:48:45;;;;;;;73.38;26.40;;;;;;;-7.36;100.00;98708.47;5013970;28;20111;-86
2022/01/14 02:51:13;;;;;;;62.28;25.73;;;;;;;-7.47;100.00;98683.03;5016336;28;20033;-86
2022/01/14 02:56:26;;;;;;;56.95;22.70;;;;;;;-7.35;100.00;98686.84;5033098;28;20036;-86
2022/01/14 02:58:52;;;;;;;54.13;23.83;;;;;;;-7.61;100.00;98687.00;5018465;28;20094;-85
2022/01/14 03:01:24;;;;;;;58.33;22.75;;;;;;;-7.67;100.00;98679.91;5015956;28;20029;-86
2022/01/14 03:03:54;;;;;;;62.08;25.48;;;;;;;-7.63;100.00;98686.97;5015907;28;20029;-85
2022/01/14 03:06:20;;;;;;;63.47;24.73;;;;;;;-7.75;100.00;98666.72;5016034;28;20033;-85
2022/01/14 03:08:45;;;;;;;60.47;25.38;;;;;;;-7.74;100.00;98659.81;5014408;28;20033;-85
2022/01/14 03:11:18;;;;;;;57.50;23.45;;;;;;;-7.74;100.00;98652.03;5015921;28;20060;-86
2022/01/14 03:13:44;;;;;;;57.08;23.35;;;;;;;-7.64;100.00;98658.34;5015419;28;20025;-86
2022/01/14 03:16:09;;;;;;;60.42;24.33;;;;;;;-7.54;100.00;98665.56;5012384;28;20029;-86
2022/01/14 03:18:45;;;;;;;66.10;28.10;;;;;;;-7.45;100.00;98679.66;5012743;28;20096;-84
2022/01/14 03:21:12;;;;;;;66.57;26.23;;;;;;;-7.60;100.00;98653.28;5013421;28;20096;-86
2022/01/14 03:23:48;;;;;;;62.95;24.80;;;;;;;-7.60;100.00;98650.69;5027065;28;20025;-87
2022/01/14 03:26:19;;;;;;;70.30;26.08;;;;;;;-7.47;100.00;98651.88;5016058;28;20033;-86
2022/01/14 03:28:46;;;;;;;74.55;27.25;;;;;;;-7.46;100.00;98664.91;5013204;28;20040;-86
2022/01/14 03:31:12;;;;;;;64.70;27.33;;;;;;;-7.35;100.00;98658.25;5012324;28;20038;-85
2022/01/14 03:33:38;;;;;;;61.13;24.20;;;;;;;-7.31;100.00;98639.31;5000325;28;20037;-85
2022/01/14 03:36:05;;;;;;;73.60;27.30;;;;;;;-7.32;100.00;98631.50;5011777;28;20037;-85
2022/01/14 03:38:30;;;;;;;69.05;27.45;;;;;;;-7.26;100.00;98653.28;5017503;28;20474;-86
2022/01/14 03:40:56;;;;;;;74.53;28.45;;;;;;;-7.46;100.00;98620.75;5032175;28;20032;-86
2022/01/14 03:43:22;;;;;;;71.38;28.42;;;;;;;-7.39;100.00;98645.16;5015657;28;20029;-86
2022/01/14 03:45:49;;;;;;;63.22;26.08;;;;;;;-7.51;100.00;98624.06;5014818;28;20025;-87
2022/01/14 03:48:15;;;;;;;68.15;27.27;;;;;;;-7.66;100.00;98608.97;5031250;28;20219;-87
2022/01/14 03:50:41;;;;;;;64.07;26.48;;;;;;;-7.57;100.00;98629.13;5015425;28;20104;-86
2022/01/14 03:53:07;;;;;;;63.33;26.58;;;;;;;-7.57;100.00;98624.81;5012366;28;20026;-86
2022/01/14 03:55:33;;;;;;;60.03;25.63;;;;;;;-7.57;100.00;98621.31;5015288;28;20090;-86
2022/01/14 03:57:58;;;;;;;66.22;26.95;;;;;;;-7.68;100.00;98606.34;5014281;28;20455;-87
2022/01/14 04:00:24;;;;;;;68.63;26.70;;;;;;;-7.56;100.00;98621.34;5009180;28;20025;-88
2022/01/14 04:02:50;;;;;;;70.30;26.40;;;;;;;-7.55;100.00;98609.25;5011659;28;20021;-85
2022/01/14 04:05:15;;;;;;;76.15;29.92;;;;;;;-7.45;100.00;98606.94;5014779;28;20112;-86
2022/01/14 04:07:41;;;;;;;70.28;27.25;;;;;;;-7.49;100.00;98599.91;5011658;28;20120;-87
2022/01/14 04:10:11;;;;;;;66.40;23.25;;;;;;;-7.47;100.00;98595.59;5014634;28;20017;-86
2022/01/14 04:12:49;;;;;;;60.13;24.77;;;;;;;-7.53;100.00;98595.44;5031237;28;20524;-86
2022/01/14 04:18:00;;;;;;;65.13;27.83;;;;;;;-7.64;100.00;98596.03;5031484;28;20032;-87
2022/01/14 04:20:26;;;;;;;71.05;25.90;;;;;;;-7.71;100.00;98585.47;5031553;28;20544;-86
2022/01/14 04:22:53;;;;;;;61.10;25.38;;;;;;;-7.57;100.00;98598.84;5014915;28;20025;-87
2022/01/14 04:25:19;;;;;;;59.92;24.35;;;;;;;-7.55;100.00;98601.44;5004452;28;20121;-88
2022/01/14 04:27:44;;;;;;;59.90;25.17;;;;;;;-7.71;100.00;98584.59;5014444;28;20109;-86
2022/01/14 04:30:11;;;;;;;70.80;28.92;;;;;;;-7.63;100.00;98601.28;5005861;28;20033;-85
2022/01/14 04:32:37;;;;;;;72.85;29.45;;;;;;;-7.72;100.00;98580.28;5014632;28;20025;-86
2022/01/14 04:35:03;;;;;;;67.03;26.25;;;;;;;-7.84;100.00;98553.97;5012600;28;20473;-85
2022/01/14 04:37:28;;;;;;;69.57;27.58;;;;;;;-7.56;100.00;98590.19;5011024;28;20512;-86
2022/01/14 04:39:54;;;;;;;66.43;26.33;;;;;;;-7.55;100.00;98588.47;5014193;28;20028;-86
2022/01/14 04:42:20;;;;;;;72.57;30.00;;;;;;;-7.55;100.00;98589.34;5011814;28;20060;-86
2022/01/14 04:44:45;;;;;;;90.15;33.88;;;;;;;-7.68;100.00;98574.28;5011281;28;20069;-85
2022/01/14 04:47:17;;;;;;;85.88;34.30;;;;;;;-7.54;100.00;98601.50;5009666;28;20025;-87
2022/01/14 04:49:43;;;;;;;;;;;;;;;-7.45;100.00;98590.47;5016363;28;20386;-85
2022/01/14 04:52:08;;;;;;;81.88;30.70;;;;;;;-7.54;100.00;98566.84;5014732;28;19988;-86
2022/01/14 04:54:35;;;;;;;107.68;39.53;;;;;;;-7.50;100.00;98561.75;5014114;28;20083;-86
2022/01/14 04:57:01;;;;;;;106.68;42.80;;;;;;;-7.41;100.00;98564.59;5014379;28;20031;-83
2022/01/14 04:59:26;;;;;;;110.10;44.22;;;;;;;-7.27;100.00;98588.31;5031013;28;20025;-82
2022/01/14 05:01:52;;;;;;;106.82;41.80;;;;;;;-7.22;100.00;98582.38;5014004;28;20033;-79
2022/01/14 05:04:18;;;;;;;109.28;41.38;;;;;;;-7.23;100.00;98580.63;5029584;28;20112;-78
2022/01/14 05:06:48;;;;;;;85.22;35.33;;;;;;;-7.35;100.00;98575.13;5030309;28;20037;-79
2022/01/14 05:09:24;;;;;;;83.93;33.30;;;;;;;-7.41;100.00;98561.97;5030817;28;20535;-79
2022/01/14 05:11:58;;;;;;;72.65;29.60;;;;;;;-7.44;100.00;98569.72;5030494;28;20489;-78
2022/01/14 05:14:23;;;;;;;70.30;28.90;;;;;;;-7.46;100.00;98563.59;5029593;28;20032;-77
2022/01/14 05:16:49;;;;;;;64.47;26.85;;;;;;;-7.51;100.00;98559.16;5030876;28;20025;-86
2022/01/14 05:19:14;;;;;;;71.43;27.35;;;;;;;-7.55;100.00;98555.59;5014741;28;20032;-87
2022/01/14 05:21:40;;;;;;;68.60;28.13;;;;;;;-7.74;100.00;98519.63;5014629;28;20551;-88
2022/01/14 05:24:06;;;;;;;82.82;30.55;;;;;;;-7.67;100.00;98534.50;5016454;28;20049;-87
2022/01/14 05:26:31;;;;;;;80.57;31.90;;;;;;;-7.56;100.00;98548.63;5016154;28;20373;-88
2022/01/14 05:28:57;;;;;;;82.07;30.42;;;;;;;-7.45;100.00;98559.28;5011032;28;20030;-87
2022/01/14 05:31:46;;;;;;;74.47;30.33;;;;;;;-7.53;100.00;98532.25;5027722;28;21581;-87
2022/01/14 05:34:11;;;;;;;73.82;30.95;;;;;;;-7.50;100.00;98543.59;5012717;28;20117;-87
2022/01/14 05:36:37;;;;;;;82.60;33.40;;;;;;;-7.46;100.00;98536.75;5013981;28;20091;-86
2022/01/14 05:39:03;;;;;;;78.85;31.63;;;;;;;-7.22;100.00;98547.72;5011257;28;20497;-87
2022/01/14 05:41:29;;;;;;;93.85;35.17;;;;;;;-7.17;100.00;98523.59;5013861;28;20026;-87
2022/01/14 05:43:54;;;;;;;92.13;34.85;;;;;;;-7.00;100.00;98510.09;5013444;28;20405;-87
2022/01/14 05:46:20;;;;;;;99.65;37.55;;;;;;;-6.95;100.00;98509.34;5013626;28;20033;-87
2022/01/14 05:48:46;;;;;;;99.70;36.13;;;;;;;-6.91;100.00;98505.09;5013290;28;20100;-87
2022/01/14 05:51:11;;;;;;;94.63;40.15;;;;;;;-6.73;100.00;98515.88;5013878;28;20037;-87
2022/01/14 05:53:37;;;;;;;116.35;45.97;;;;;;;-6.70;100.00;98505.53;5013935;28;20112;-88
2022/01/14 05:56:03;;;;;;;102.50;42.03;;;;;;;-6.57;100.00;98510.16;5014444;28;20052;-87
2022/01/14 05:58:28;;;;;;;87.18;35.67;;;;;;;-6.46;100.00;98495.66;5012946;28;20404;-86
2022/01/14 06:00:54;;;;;;;82.50;33.95;;;;;;;-6.49;100.00;98497.31;5013951;28;20025;-88
2022/01/14 06:03:19;;;;;;;91.53;34.75;;;;;;;-6.55;100.00;98492.00;5014331;28;20489;-87
2022/01/14 06:05:45;;;;;;;103.28;37.63;;;;;;;-6.49;100.00;98505.97;5012366;28;20109;-86
2022/01/14 06:08:10;;;;;;;98.93;36.28;;;;;;;-6.64;100.00;98495.28;5010460;28;20033;-86
2022/01/14 06:10:36;;;;;;;100.45;37.65;;;;;;;-6.73;100.00;98503.75;5011987;28;20413;-88
2022/01/14 06:13:02;;;;;;;86.07;32.42;;;;;;;-6.64;100.00;98485.75;5014072;28;20017;-87
2022/01/14 06:15:27;;;;;;;118.30;40.88;;;;;;;-6.34;100.00;98513.22;5014858;28;20029;-88
2022/01/14 06:17:53;;;;;;;106.65;37.60;;;;;;;-6.19;100.00;98505.72;5015180;28;20033;-87
2022/01/14 06:20:18;;;;;;;94.95;37.50;;;;;;;-6.08;100.00;98492.03;5031442;28;20486;-87
2022/01/14 06:22:44;;;;;;;102.45;40.63;;;;;;;-6.00;100.00;98489.59;5031176;28;20025;-86
2022/01/14 06:25:10;;;;;;;103.95;41.70;;;;;;;-6.00;100.00;98468.75;5008389;28;20042;-87
2022/01/14 06:27:35;;;;;;;116.60;44.88;;;;;;;-5.71;100.00;98490.91;4968537;28;20190;-88
2022/01/14 06:30:03;;;;;;;128.27;48.67;;;;;;;-5.72;100.00;98473.53;4985686;28;20027;-86
2022/01/14 06:32:29;;;;;;;124.13;48.33;;;;;;;-5.62;100.00;98483.25;4966043;28;20375;-87
2022/01/14 06:34:54;;;;;;;118.80;48.42;;;;;;;-5.43;100.00;98476.59;4992242;28;20031;-88
2022/01/14 06:37:20;;;;;;;117.03;46.72;;;;;;;-5.43;99.06;98455.75;5005034;28;20113;-88
2022/01/14 06:39:46;;;;;;;106.80;43.67;;;;;;;-5.37;98.14;98454.97;4992749;28;20015;-87
2022/01/14 06:42:11;;;;;;;109.63;44.95;;;;;;;-5.46;98.90;98440.06;4995215;28;20033;-88
2022/01/14 06:44:37;;;;;;;140.50;54.83;;;;;;;-5.56;100.00;98428.63;4970392;28;20185;-87
2022/01/14 06:47:03;;;;;;;112.65;46.78;;;;;;;-5.67;100.00;98431.94;4988777;28;20100;-87
2022/01/14 06:49:29;;;;;;;127.88;50.47;;;;;;;-5.74;100.00;98419.66;4979567;28;20039;-87
2022/01/14 06:51:54;;;;;;;128.05;50.15;;;;;;;-5.33;100.00;98408.13;4967270;28;20031;-90
2022/01/14 06:54:20;;;;;;;132.88;50.92;;;;;;;-3.97;96.61;98416.66;4975771;28;20034;-88
2022/01/14 06:56:45;;;;;;;109.28;40.72;;;;;;;-3.45;88.20;98402.25;4991059;28;20100;-88
2022/01/14 06:59:11;;;;;;;100.10;42.47;;;;;;;-2.29;82.68;98412.38;4990433;28;20022;-89
2022/01/14 07:01:36;;;;;;;101.25;44.15;;;;;;;-1.98;77.77;98403.69;5003124;28;20031;-87
2022/01/14 07:04:03;;;;;;;94.88;42.00;;;;;;;-0.85;73.09;98397.44;4988818;28;20109;-88
2022/01/14 07:06:29;;;;;;;79.93;34.28;;;;;;;-0.89;71.72;98395.69;4987259;28;20477;-85
2022/01/14 07:08:54;;;;;;;85.05;35.88;;;;;;;0.83;64.86;98387.53;5001652;28;20045;-88
2022/01/14 07:11:25;;;;;;;85.72;38.10;;;;;;;1.12;60.94;98401.25;5004540;28;20040;-88
2022/01/14 07:13:51;;;;;;;90.03;37.08;;;;;;;1.25;60.28;98408.16;4979347;28;20111;-89
2022/01/14 07:16:16;;;;;;;79.32;36.72;;;;;;;2.06;57.72;98398.25;4967688;28;20558;-88
2022/01/14 07:18:45;;;;;;;93.07;41.17;;;;;;;1.69;57.59;98393.56;4968639;28;20081;-88
2022/01/14 07:21:11;;;;;;;93.57;39.53;;;;;;;1.83;57.34;98410.03;4981692;28;20136;-89
2022/01/14 07:23:36;;;;;;;74.00;31.88;;;;;;;2.39;55.47;98415.38;4993659;28;20038;-87
2022/01/14 07:26:02;;;;;;;115.35;50.38;;;;;;;3.56;53.12;98413.25;4996507;28;20027;-89
2022/01/14 07:28:27;;;;;;;98.30;45.47;;;;;;;2.95;51.98;98400.34;4984109;28;20030;-89
2022/01/14 07:30:53;;;;;;;98.30;45.28;;;;;;;3.02;53.28;98407.22;4987172;28;20049;-88
2022/01/14 07:33:19;;;;;;;110.93;50.47;;;;;;;2.64;53.52;98411.44;4959656;28;20035;-88
2022/01/14 07:35:44;;;;;;;97.72;43.70;;;;;;;2.53;53.51;98413.38;4973083;28;20057;-88
2022/01/14 07:38:10;;;;;;;144.55;58.88;;;;;;;2.37;54.03;98427.72;4975335;28;20047;-88
2022/01/14 07:40:38;;;;;;;132.00;57.88;;;;;;;2.93;53.05;98425.91;4983371;28;20498;-87
2022/01/14 07:43:04;;;;;;;127.75;59.15;;;;;;;3.01;53.36;98390.53;4981402;28;20030;-84
2022/01/14 07:45:30;;;;;;;119.13;52.88;;;;;;;3.76;51.15;98389.88;4973616;28;20052;-89
2022/01/14 07:47:55;;;;;;;134.80;60.15;;;;;;;4.13;49.41;98356.41;4992871;28;20418;-89
2022/01/14 07:50:21;;;;;;;122.22;55.60;;;;;;;4.99;47.91;98355.09;4966691;28;20045;-88
2022/01/14 07:52:46;;;;;;;114.93;51.17;;;;;;;6.02;46.56;98352.16;4991235;28;20034;-87
2022/01/14 07:55:12;;;;;;;121.63;53.40;;;;;;;5.37;46.61;98342.53;4971732;28;20034;-90
2022/01/14 07:57:37;;;;;;;116.75;53.05;;;;;;;4.90;47.98;98350.94;4972965;28;20041;-87
2022/01/14 08:00:05;;;;;;;101.55;46.20;;;;;;;4.40;49.29;98349.56;5006430;28;20116;-87
2022/01/14 08:02:31;;;;;;;143.40;62.63;;;;;;;4.56;49.27;98350.06;4992931;28;20508;-88
2022/01/14 08:04:56;;;;;;;108.18;48.85;;;;;;;3.65;51.32;98342.53;4993626;28;20029;-89
2022/01/14 08:07:23;;;;;;;116.78;51.78;;;;;;;2.94;53.38;98349.25;5006583;28;20481;-88
2022/01/14 08:09:49;;;;;;;90.63;39.30;;;;;;;2.55;55.27;98361.41;4989734;28;20061;-89
2022/01/14 08:12:15;;;;;;;94.90;41.45;;;;;;;2.74;55.39;98360.19;4975798;28;20056;-89
2022/01/14 08:14:41;;;;;;;89.50;34.70;;;;;;;2.50;54.22;98351.81;4996317;28;20045;-89
2022/01/14 08:17:07;;;;;;;70.90;33.92;;;;;;;3.36;54.34;98352.81;4978921;28;20031;-90
2022/01/14 08:19:33;;;;;;;69.50;32.15;;;;;;;4.03;53.35;98351.38;4982004;28;20049;-88
2022/01/14 08:22:00;;;;;;;71.75;34.40;;;;;;;5.23;50.27;98330.59;4979242;28;20041;-89
2022/01/14 08:24:26;;;;;;;66.82;32.05;;;;;;;5.80;47.52;98307.66;5003609;28;20141;-89
2022/01/14 08:26:51;;;;;;;70.85;33.50;;;;;;;5.15;48.67;98320.19;4997080;28;20054;-88
2022/01/14 08:29:17;;;;;;;72.88;32.42;;;;;;;5.29;48.82;98309.22;4960882;28;20035;-88
2022/01/14 08:31:43;;;;;;;55.10;27.73;;;;;;;5.82;47.17;98305.81;4990078;28;20090;-87
2022/01/14 08:34:08;;;;;;;61.40;28.73;;;;;;;4.57;48.99;98320.00;4991302;28;20058;-88
2022/01/14 08:36:34;;;;;;;70.07;33.10;;;;;;;6.42;45.99;98295.03;4988148;28;20022;-89
2022/01/14 08:38:59;;;;;;;86.43;40.78;;;;;;;6.62;46.62;98318.28;5003467;28;20026;-89
2022/01/14 08:41:29;;;;;;;71.95;35.03;;;;;;;7.36;45.01;98296.13;4999755;28;20042;-89
2022/01/14 08:44:04;;;;;;;65.45;31.75;;;;;;;5.94;46.88;98313.41;4989882;28;20092;-89
2022/01/14 08:46:30;;;;;;;89.22;36.10;;;;;;;6.08;47.00;98320.09;4991841;28;20135;-89
2022/01/14 08:48:58;;;;;;;76.00;35.50;;;;;;;6.49;47.24;98319.63;4989750;28;20572;-89
2022/01/14 08:51:26;;;;;;;70.32;33.03;;;;;;;6.77;46.82;98328.38;4985313;28;20421;-88
2022/01/14 08:53:52;;;;;;;76.45;35.55;;;;;;;7.72;44.65;98305.38;4991111;28;20030;-89
2022/01/14 08:56:18;;;;;;;112.80;54.13;;;;;;;8.14;43.37;98303.72;4985322;28;20081;-89
2022/01/14 08:58:44;;;;;;;125.18;62.35;;;;;;;8.84;41.37;98295.47;4996218;28;20026;-88
2022/01/14 09:01:10;;;;;;;140.43;67.88;;;;;;;6.41;45.27;98300.38;4995088;28;20026;-89
2022/01/14 09:03:36;;;;;;;139.55;68.40;;;;;;;6.42;45.93;98310.97;5007960;28;20126;-89
2022/01/14 09:06:01;;;;;;;131.82;62.42;;;;;;;7.40;44.18;98295.97;5007625;28;20406;-89
2022/01/14 09:08:27;;;;;;;123.32;60.42;;;;;;;7.49;44.86;98292.06;4983600;28;20093;-88
2022/01/14 09:10:52;;;;;;;109.10;55.75;;;;;;;8.36;43.01;98292.22;4998824;28;20134;-88
2022/01/14 09:13:18;;;;;;;94.07;46.45;;;;;;;8.67;43.03;98279.34;4991879;28;20062;-88
2022/01/14 09:15:45;;;;;;;98.05;47.95;;;;;;;9.21;41.22;98258.22;4998831;28;20057;-88
2022/01/14 09:18:10;;;;;;;74.13;37.38;;;;;;;7.51;44.08;98290.22;4966294;28;20125;-87
2022/01/14 09:20:36;;;;;;;75.68;37.75;;;;;;;7.91;44.77;98287.75;4967950;28;20058;-88
2022/01/14 09:23:03;;;;;;;98.05;49.35;;;;;;;7.60;45.95;98276.56;4968244;28;20572;-88
2022/01/14 09:25:28;;;;;;;101.38;44.78;;;;;;;7.20;45.50;98271.88;4979960;28;20093;-86
2022/01/14 09:27:54;;;;;;;97.13;47.58;;;;;;;6.75;47.45;98285.03;4968007;28;20026;-87
2022/01/14 09:30:21;;;;;;;90.85;44.30;;;;;;;7.60;47.06;98273.91;4994525;28;20105;-87
2022/01/14 09:32:47;;;;;;;75.32;37.53;;;;;;;7.69;45.19;98257.56;4967549;28;20027;-88
2022/01/14 09:35:13;;;;;;;80.40;38.15;;;;;;;7.91;45.92;98255.78;4988021;28;20101;-87
2022/01/14 09:37:40;;;;;;;67.80;33.33;;;;;;;6.46;49.00;98264.75;4987804;28;20062;-87
2022/01/14 09:40:07;;;;;;;65.32;31.98;;;;;;;8.08;46.03;98239.13;4964562;28;20019;-87
2022/01/14 09:42:33;;;;;;;70.65;31.38;;;;;;;7.25;46.71;98259.28;4995988;28;20451;-88
2022/01/14 09:44:59;;;;;;;65.63;30.58;;;;;;;8.38;45.64;98253.00;4968106;28;20022;-88
2022/01/14 09:47:25;;;;;;;70.93;29.67;;;;;;;8.53;43.98;98252.38;4995579;28;20562;-88
2022/01/14 09:49:51;;;;;;;71.13;32.65;;;;;;;8.31;45.55;98248.88;4995534;28;20482;-86
2022/01/14 09:52:17;;;;;;;61.50;29.88;;;;;;;7.52;46.59;98242.25;4969014;28;20038;-88
2022/01/14 09:54:44;;;;;;;66.80;29.60;;;;;;;7.45;46.67;98255.84;4962398;28;20026;-88
2022/01/14 09:57:12;;;;;;;69.40;30.58;;;;;;;7.49;47.21;98246.81;4990410;28;20105;-88
2022/01/14 09:59:38;;;;;;;67.10;33.33;;;;;;;7.66;46.81;98244.38;4989799;28;20030;-86
2022/01/14 10:02:04;;;;;;;60.83;31.48;;;;;;;7.68;46.00;98241.66;4983717;28;20027;-87
2022/01/14 10:04:30;;;;;;;80.47;34.78;;;;;;;8.48;45.04;98227.72;4965997;28;20030;-86
2022/01/14 10:06:58;;;;;;;76.10;35.75;;;;;;;9.68;44.00;98215.09;5000857;28;20123;-87
2022/01/14 10:09:32;;;;;;;57.45;29.17;;;;;;;10.82;41.38;98189.72;4978148;28;20041;-87
2022/01/14 10:12:08;;;;;;;54.33;29.50;;;;;;;10.33;41.32;98193.19;5000115;28;20034;-87
2022/01/14 10:14:40;;;;;;;67.13;32.25;;;;;;;9.75;42.98;98184.50;5007184;28;20040;-87
2022/01/14 10:17:09;;;;;;;;;;;;;;;10.29;41.28;98173.75;5010959;28;20034;-88
2022/01/14 10:19:37;;;;;;;60.95;31.60;;;;;;;10.67;41.97;98173.59;4985798;28;19918;-87
2022/01/14 10:22:27;;;;;;;58.65;31.38;;;;;;;9.03;43.85;98168.31;4998322;28;20537;-87
2022/01/14 10:24:53;;;;;;;64.72;33.47;;;;;;;9.10;44.43;98168.91;4987918;28;20530;-87
2022/01/14 10:27:49;;;;;;;74.03;36.97;;;;;;;10.74;41.62;98156.25;5004970;28;20047;-87
2022/01/14 10:30:31;;;;;;;74.07;37.35;;;;;;;11.17;40.42;98144.09;4983782;28;20496;-88
2022/01/14 10:33:02;;;;;;;80.05;38.70;;;;;;;10.77;41.23;98140.03;5001393;28;20026;-87
2022/01/14 10:35:36;;;;;;;67.03;34.95;;;;;;;11.04;40.76;98132.38;5014709;28;20494;-87
2022/01/14 10:38:07;;;;;;;57.55;31.02;;;;;;;10.67;41.63;98122.78;4965741;28;20074;-87
2022/01/14 10:40:38;;;;;;;69.53;33.00;;;;;;;10.78;42.00;98125.72;4969483;28;20034;-86
2022/01/14 10:43:19;;;;;;;53.33;29.40;;;;;;;10.37;42.04;98119.03;5005825;28;20026;-85
2022/01/14 10:45:45;;;;;;;62.95;30.33;;;;;;;10.41;41.57;98110.75;4988742;28;20032;-87
2022/01/14 10:48:16;;;;;;;56.47;30.80;;;;;;;8.64;45.45;98116.78;4990233;28;20514;-86
2022/01/14 10:50:47;;;;;;;61.17;29.70;;;;;;;8.49;46.67;98118.31;4979742;28;20053;-87
2022/01/14 10:53:16;;;;;;;55.25;29.98;;;;;;;8.92;45.78;98117.25;5000401;28;20109;-86
2022/01/14 10:56:03;;;;;;;64.95;34.08;;;;;;;9.71;44.70;98098.28;5009874;28;20042;-86
2022/01/14 10:58:38;;;;;;;62.40;35.38;;;;;;;11.62;41.52;98079.06;4989560;28;20030;-87
2022/01/14 11:01:16;;;;;;;85.60;41.83;;;;;;;12.29;39.95;98060.75;5014095;28;20030;-85
2022/01/14 11:03:47;;;;;;;57.35;30.83;;;;;;;12.12;39.52;98063.59;4971009;28;20038;-87
2022/01/14 11:06:21;;;;;;;53.53;28.73;;;;;;;10.99;41.15;98063.00;5007046;28;20022;-87
2022/01/14 11:08:49;;;;;;;56.78;26.55;;;;;;;10.18;42.99;98066.50;5006146;28;20037;-87
2022/01/14 11:11:15;;;;;;;50.88;26.33;;;;;;;10.62;42.95;98065.94;4968976;28;20084;-87
2022/01/14 11:13:42;;;;;;;54.47;28.98;;;;;;;10.56;42.76;98050.22;4970453;28;20190;-86
2022/01/14 11:16:08;;;;;;;59.50;33.58;;;;;;;10.12;43.59;98064.09;5002667;28;20038;-87
2022/01/14 11:18:34;;;;;;;88.25;45.22;;;;;;;10.75;43.34;98053.66;4994299;28;20042;-86
2022/01/14 11:23:43;;;;;;;85.15;46.38;;;;;;;12.22;40.09;98021.84;4998427;28;20049;-86
2022/01/14 11:26:15;;;;;;;90.95;48.00;;;;;;;12.18;40.85;98020.31;5007532;28;20550;-87
2022/01/14 11:28:43;;;;;;;86.05;46.35;;;;;;;11.17;42.16;98021.81;4964180;28;20502;-89
2022/01/14 11:31:28;;;;;;;90.65;48.90;;;;;;;12.06;40.91;98012.16;4997395;28;20031;-88
2022/01/14 11:33:54;;;;;;;68.85;39.13;;;;;;;11.81;40.70;97999.38;5009099;28;20027;-88
2022/01/14 11:36:20;;;;;;;73.78;38.35;;;;;;;12.91;39.46;97987.06;4996891;28;20037;-87
2022/01/14 11:38:46;;;;;;;65.38;38.88;;;;;;;13.80;37.75;97977.56;4996335;28;20003;-88
2022/01/14 11:41:33;;;;;;;69.53;38.35;;;;;;;13.00;38.75;97977.56;4977250;28;20045;-88